Time;durP1;ratioP1;P1;durP2;ratioP2;P2;SDS_P1;SDS_P2;PMS_P1;PMS_P2;Temp;Humidity;BMP_temperature;BMP_pressure;BME280_temperature;BME280_humidity;BME280_pressure;Samples;Min_cycle;Max_cycle;Signal;HPM_P1;HPM_P2
2021/05/21 00:02:16;;;;;;;19.73;11.55;;;;;;;12.05;56.61;99073.63;262347;1104;115067;-64
2021/05/21 00:07:32;;;;;;;20.48;11.65;;;;;;;11.98;56.42;99086.52;262853;1104;115434;-66
2021/05/21 00:12:40;;;;;;;18.83;11.30;;;;;;;11.92;56.52;99070.08;262566;1099;114587;-64
2021/05/21 00:17:54;;;;;;;20.90;12.37;;;;;;;11.86;57.04;99082.03;262451;1104;115920;-65
2021/05/21 00:23:05;;;;;;;25.40;13.57;;;;;;;11.83;56.70;99082.20;262689;1099;115378;-64
2021/05/21 00:28:13;;;;;;;22.17;13.43;;;;;;;11.82;57.12;99076.02;262643;1104;114927;-65
2021/05/21 00:33:19;;;;;;;21.80;13.15;;;;;;;11.82;56.68;99072.50;262362;1100;114937;-66
2021/05/21 00:38:35;;;;;;;23.47;14.73;;;;;;;11.82;57.45;99064.50;262698;1104;115989;-65
2021/05/21 00:43:51;;;;;;;22.97;13.37;;;;;;;11.81;57.22;99068.95;263088;1099;114911;-65
2021/05/21 00:48:59;;;;;;;25.70;14.03;;;;;;;11.79;57.41;99064.70;262750;1104;115226;-63
2021/05/21 00:54:05;;;;;;;26.93;14.90;;;;;;;11.74;57.27;99061.47;262306;1100;115240;-64
2021/05/21 00:59:12;;;;;;;22.38;14.13;;;;;;;11.70;57.73;99060.81;263124;1104;115287;-65
2021/05/21 01:04:17;;;;;;;22.93;14.33;;;;;;;11.68;57.75;99060.05;262906;1099;115299;-66
2021/05/21 01:09:21;;;;;;;23.78;14.98;;;;;;;11.62;57.96;99060.48;263106;1102;114771;-66
2021/05/21 01:14:25;;;;;;;21.20;14.20;;;;;;;11.57;58.74;99052.77;262924;1100;115934;-65
2021/05/21 01:19:29;;;;;;;24.90;15.03;;;;;;;11.54;58.51;99052.97;263126;1104;115933;-65
2021/05/21 01:24:32;;;;;;;22.40;14.28;;;;;;;11.48;58.44;99047.19;263174;1099;115178;-65
2021/05/21 01:29:37;;;;;;;25.03;15.48;;;;;;;11.42;58.43;99035.14;263164;1102;115209;-65
2021/05/21 01:34:40;;;;;;;28.45;15.18;;;;;;;11.37;58.56;99039.90;263176;1099;114608;-64
2021/05/21 01:39:46;;;;;;;27.38;15.05;;;;;;;11.36;58.77;99038.20;262472;1104;115031;-65
2021/05/21 01:44:55;;;;;;;21.70;14.07;;;;;;;11.37;58.61;99037.23;261454;1099;114680;-64
2021/05/21 01:50:01;;;;;;;23.08;14.40;;;;;;;11.29;58.88;99037.74;261803;1101;115184;-64
2021/05/21 01:55:05;;;;;;;22.48;13.90;;;;;;;11.20;58.97;99029.48;263150;1099;115050;-64
2021/05/21 02:00:13;;;;;;;20.85;13.55;;;;;;;11.10;58.96;99030.07;263114;1101;115060;-66
2021/05/21 02:05:18;;;;;;;21.47;13.40;;;;;;;11.00;58.96;99022.77;262905;1099;114602;-63
2021/05/21 02:10:23;;;;;;;21.20;14.05;;;;;;;10.94;59.42;99024.05;262658;1104;114887;-65
2021/05/21 02:15:27;;;;;;;24.93;13.75;;;;;;;10.89;59.15;99029.64;263063;1100;115251;-65
2021/05/21 02:20:32;;;;;;;21.70;13.63;;;;;;;10.84;59.39;99018.45;263196;1103;214219;-66
2021/05/21 02:25:37;;;;;;;23.17;15.20;;;;;;;10.82;59.74;99027.47;262328;1099;114673;-66
2021/05/21 02:30:41;;;;;;;24.73;15.03;;;;;;;10.80;59.78;99018.72;263133;1103;115109;-65
2021/05/21 02:35:44;;;;;;;26.57;16.53;;;;;;;10.81;60.07;99026.63;262765;1100;115172;-65
2021/05/21 02:40:48;;;;;;;26.33;16.38;;;;;;;10.87;60.11;99028.05;263160;1104;115334;-64
2021/05/21 02:45:52;;;;;;;28.63;17.25;;;;;;;10.91;60.60;99021.58;263119;1099;115859;-64
2021/05/21 02:50:55;;;;;;;26.70;16.85;;;;;;;10.94;60.10;99032.03;262444;1104;115489;-65
2021/05/21 02:55:59;;;;;;;27.50;17.30;;;;;;;10.96;60.19;99031.92;263157;1099;116205;-65
2021/05/21 03:01:03;;;;;;;32.45;16.88;;;;;;;10.96;60.45;99038.09;262633;1104;115352;-65
2021/05/21 03:06:07;;;;;;;27.33;17.38;;;;;;;10.95;60.79;99044.38;262785;1099;114944;-65
2021/05/21 03:11:11;;;;;;;30.93;17.90;;;;;;;10.93;60.46;99032.96;262789;1104;115206;-66
2021/05/21 03:16:15;;;;;;;30.15;18.75;;;;;;;10.89;60.85;99029.64;262942;1100;115513;-66
2021/05/21 03:21:19;;;;;;;29.25;17.53;;;;;;;10.90;61.10;99033.16;262864;1102;114867;-68
2021/05/21 03:26:23;;;;;;;30.85;18.18;;;;;;;10.89;61.14;99029.64;262832;1099;114766;-67
2021/05/21 03:31:28;;;;;;;27.08;17.00;;;;;;;10.86;60.66;99031.64;262585;1104;114493;-66
2021/05/21 03:36:33;;;;;;;28.85;16.43;;;;;;;10.90;61.37;99025.16;262492;1099;115212;-66
2021/05/21 03:41:37;;;;;;;29.88;17.00;;;;;;;10.98;61.45;99027.36;263248;1101;114758;-66
2021/05/21 03:46:42;;;;;;;28.15;16.63;;;;;;;11.04;61.77;99013.63;263039;1099;114684;-66
2021/05/21 03:51:46;;;;;;;27.43;17.50;;;;;;;11.08;61.76;99021.34;260769;1104;115908;-66
2021/05/21 03:56:51;;;;;;;34.75;17.45;;;;;;;11.08;61.28;99016.02;263052;1099;115188;-66
2021/05/21 04:01:55;;;;;;;;;;;;;;;11.12;60.99;99024.66;262920;1102;115123;-65
2021/05/21 04:07:00;;;;;;;26.30;15.63;;;;;;;11.11;61.80;99028.29;262387;1099;102895;-65
2021/05/21 04:12:04;;;;;;;24.13;16.33;;;;;;;11.10;61.23;99031.88;263175;1101;115301;-65
2021/05/21 04:17:10;;;;;;;26.05;16.80;;;;;;;11.13;62.29;99029.88;262801;1099;114937;-66
2021/05/21 04:22:15;;;;;;;27.80;17.25;;;;;;;11.17;61.79;99035.86;262474;1104;115300;-64
2021/05/21 04:27:19;;;;;;;27.73;15.30;;;;;;;11.26;62.22;99029.09;262535;1100;115553;-65
2021/05/21 04:32:24;;;;;;;30.33;16.13;;;;;;;11.39;61.62;99019.34;262876;1104;115171;-65
2021/05/21 04:37:29;;;;;;;30.63;16.00;;;;;;;11.51;62.14;99029.18;262787;1100;115946;-64
2021/05/21 04:42:34;;;;;;;25.15;13.85;;;;;;;11.65;62.13;99030.08;263139;1104;115630;-64
2021/05/21 04:47:38;;;;;;;24.50;14.60;;;;;;;11.74;62.03;99022.33;262604;1099;115359;-64
2021/05/21 04:52:42;;;;;;;22.75;13.75;;;;;;;11.85;61.61;99021.63;262331;1104;115340;-64
2021/05/21 04:57:50;;;;;;;18.55;12.10;;;;;;;11.90;61.14;99019.53;263206;1098;114911;-65
2021/05/21 05:02:54;;;;;;;20.73;12.30;;;;;;;11.97;61.43;99015.48;262732;1104;115160;-64
2021/05/21 05:08:02;;;;;;;14.17;9.80;;;;;;;12.04;61.44;99018.58;261516;1099;114479;-64
2021/05/21 05:13:07;;;;;;;13.13;10.53;;;;;;;12.09;61.29;99024.44;263237;1104;114448;-64
2021/05/21 05:18:12;;;;;;;17.00;10.78;;;;;;;12.12;60.45;99018.91;262607;1100;115519;-63
2021/05/21 05:23:18;;;;;;;20.52;10.53;;;;;;;12.19;60.60;99014.00;262135;1104;114991;-64
2021/05/21 05:28:26;;;;;;;17.67;10.80;;;;;;;12.24;60.74;99011.88;262220;1100;114880;-65
2021/05/21 05:33:30;;;;;;;21.85;11.03;;;;;;;12.36;61.02;99008.34;263073;1104;114914;-64
2021/05/21 05:38:35;;;;;;;16.10;9.83;;;;;;;12.57;61.17;99008.67;263201;1099;115596;-66
2021/05/21 05:43:44;;;;;;;13.08;9.40;;;;;;;12.78;61.26;99007.14;263171;1104;114641;-66
2021/05/21 05:48:50;;;;;;;16.30;8.77;;;;;;;12.98;60.35;99003.03;263080;1100;115765;-67
2021/05/21 05:53:55;;;;;;;13.53;9.10;;;;;;;13.13;59.90;98994.86;262462;1104;115100;-65
2021/05/21 05:59:00;;;;;;;16.58;9.15;;;;;;;13.27;60.46;98997.39;262461;1099;114823;-65
2021/05/21 06:04:05;;;;;;;13.88;8.63;;;;;;;13.41;59.84;98989.20;261952;1104;114754;-64
2021/05/21 06:09:09;;;;;;;11.90;8.00;;;;;;;13.55;59.71;98985.49;262307;1098;114762;-64
2021/05/21 06:14:14;;;;;;;;;;;;;;;13.66;59.33;98988.23;263154;1104;114803;-63
2021/05/21 06:19:18;;;;;;;16.43;8.03;;;;;;;13.72;59.51;98981.55;263219;1100;101627;-65
2021/05/21 06:24:27;;;;;;;14.60;7.28;;;;;;;13.82;58.56;98971.85;262264;1099;115211;-64
2021/05/21 06:29:42;;;;;;;11.53;7.60;;;;;;;13.87;58.09;98976.88;261153;1102;115330;-65
2021/05/21 06:34:53;;;;;;;13.20;6.90;;;;;;;13.90;58.37;98972.14;261201;1104;115017;-66
2021/05/21 06:40:10;;;;;;;13.90;5.90;;;;;;;14.00;58.15;98961.58;261215;1100;115456;-66
2021/05/21 06:45:16;;;;;;;10.70;5.77;;;;;;;14.12;58.13;98951.73;261310;1103;114977;-66
2021/05/21 06:50:27;;;;;;;11.20;5.47;;;;;;;14.25;57.97;98952.48;261010;1104;114498;-65
2021/05/21 06:55:39;;;;;;;11.17;5.13;;;;;;;14.33;57.35;98939.33;261110;1104;114660;-64
2021/05/21 07:00:49;;;;;;;7.63;4.57;;;;;;;14.41;57.52;98928.03;260833;1097;114671;-65
2021/05/21 07:06:06;;;;;;;5.60;3.97;;;;;;;14.51;57.11;98917.48;261044;1104;114454;-65
2021/05/21 07:11:12;;;;;;;4.93;3.33;;;;;;;14.62;57.04;98912.11;260643;1102;115331;-65
2021/05/21 07:16:18;;;;;;;6.63;3.20;;;;;;;14.71;56.43;98911.37;261089;1104;115259;-62
2021/05/21 07:21:26;;;;;;;5.47;3.37;;;;;;;14.77;56.04;98910.84;262629;1100;114996;-64
2021/05/21 07:26:31;;;;;;;4.00;2.90;;;;;;;14.82;56.07;98905.98;262684;1104;115064;-65
2021/05/21 07:31:35;;;;;;;8.35;3.63;;;;;;;14.92;56.24;98907.91;262535;1100;115975;-65
2021/05/21 07:36:39;;;;;;;4.90;3.00;;;;;;;15.03;56.38;98889.95;263167;1102;114765;-65
2021/05/21 07:41:43;;;;;;;5.37;2.57;;;;;;;15.14;55.95;98889.06;262774;1100;115633;-65
2021/05/21 07:46:47;;;;;;;7.03;2.90;;;;;;;15.27;55.58;98886.22;262867;1104;115453;-65
2021/05/21 07:51:52;;;;;;;4.00;2.43;;;;;;;15.36;54.93;98891.66;263090;1099;114870;-66
2021/05/21 07:56:56;;;;;;;4.43;2.07;;;;;;;15.38;54.64;98888.83;262762;1104;114973;-66
2021/05/21 08:02:00;;;;;;;4.13;1.87;;;;;;;15.41;54.11;98883.22;263141;1099;115192;-66
2021/05/21 08:07:04;;;;;;;4.87;2.10;;;;;;;15.50;54.35;98877.08;263125;1104;114687;-66
2021/05/21 08:12:09;;;;;;;3.93;1.73;;;;;;;15.65;54.03;98868.70;262339;1101;115092;-66
2021/05/21 08:17:14;;;;;;;3.57;1.80;;;;;;;15.77;53.58;98871.22;263117;1101;114563;-66
2021/05/21 08:22:19;;;;;;;3.57;1.60;;;;;;;15.88;53.37;98870.29;262769;1100;114641;-66
2021/05/21 08:27:23;;;;;;;4.03;2.10;;;;;;;15.95;53.26;98860.72;263120;1104;114508;-66
2021/05/21 08:32:27;;;;;;;4.13;1.90;;;;;;;16.04;52.68;98864.45;262697;1100;115389;-66
2021/05/21 08:37:32;;;;;;;5.53;1.70;;;;;;;16.18;52.78;98849.81;263099;1104;114943;-66
2021/05/21 08:42:40;;;;;;;4.07;1.90;;;;;;;16.23;51.78;98848.40;263105;1099;114875;-65
2021/05/21 08:47:44;;;;;;;6.80;2.27;;;;;;;16.26;52.15;98840.08;262807;1104;115058;-65
2021/05/21 08:52:48;;;;;;;6.57;1.80;;;;;;;16.32;52.08;98833.32;263087;1099;115212;-65
2021/05/21 08:57:52;;;;;;;4.10;1.50;;;;;;;16.43;51.57;98821.61;263073;1104;115842;-65
2021/05/21 09:02:55;;;;;;;2.10;1.50;;;;;;;16.58;51.28;98806.81;263148;1099;114361;-65
2021/05/21 09:07:59;;;;;;;5.47;1.70;;;;;;;16.74;51.23;98795.50;263163;1104;115115;-65
2021/05/21 09:13:02;;;;;;;2.30;1.10;;;;;;;16.79;50.47;98801.35;263123;1100;114893;-65
2021/05/21 09:18:08;;;;;;;2.78;1.40;;;;;;;16.87;49.96;98801.48;263107;1099;115155;-65
2021/05/21 09:23:14;;;;;;;1.55;1.30;;;;;;;16.98;49.87;98785.23;263077;1099;115446;-65
2021/05/21 09:28:39;;;;;;;2.05;1.30;;;;;;;17.07;49.55;98788.89;263102;1104;114869;-66
2021/05/21 09:33:45;;;;;;;2.18;1.15;;;;;;;17.21;49.50;98782.23;263082;1100;115344;-66
2021/05/21 09:38:54;;;;;;;3.20;1.30;;;;;;;17.37;49.19;98770.89;263082;1104;115234;-66
2021/05/21 09:44:19;;;;;;;1.70;1.10;;;;;;;17.59;49.15;98758.92;263062;1100;114910;-66
2021/05/21 09:49:34;;;;;;;3.20;1.27;;;;;;;17.71;48.88;98760.45;262813;1103;114868;-66
2021/05/21 09:54:52;;;;;;;2.78;1.10;;;;;;;17.76;48.04;98758.18;262680;1100;115306;-66
2021/05/21 09:59:56;;;;;;;1.83;1.00;;;;;;;17.91;48.46;98737.87;262474;1104;115136;-67
2021/05/21 10:05:02;;;;;;;2.05;1.30;;;;;;;18.13;47.45;98724.98;262726;1104;115097;-66
2021/05/21 10:10:06;;;;;;;4.93;1.23;;;;;;;18.34;47.73;98728.28;262402;1105;115342;-66
2021/05/21 10:15:10;;;;;;;2.53;1.35;;;;;;;18.63;47.26;98713.73;263053;1099;114990;-65
2021/05/21 10:20:15;;;;;;;2.28;1.68;;;;;;;18.72;46.82;98699.36;263100;1104;115293;-65
2021/05/21 10:25:24;;;;;;;4.07;1.40;;;;;;;18.81;46.51;98695.70;262681;1100;115124;-64
2021/05/21 10:30:30;;;;;;;3.13;0.87;;;;;;;18.90;44.84;98694.78;263091;1104;114994;-65
2021/05/21 10:35:34;;;;;;;4.90;1.60;;;;;;;19.02;45.30;98690.00;263088;1099;114636;-65
2021/05/21 10:41:12;;;;;;;4.40;1.07;;;;;;;19.15;45.58;98684.16;263112;1104;114939;-66
2021/05/21 10:46:22;;;;;;;1.63;1.13;;;;;;;19.35;45.50;98655.11;262772;1100;115453;-66
2021/05/21 10:52:00;;;;;;;5.60;1.28;;;;;;;19.54;45.25;98654.88;263125;1104;115701;-66
2021/05/21 10:57:14;;;;;;;1.30;0.70;;;;;;;19.79;44.38;98647.75;262862;1100;116545;-66
2021/05/21 11:02:25;;;;;;;1.90;0.80;;;;;;;20.03;43.96;98638.88;262261;1105;114956;-66
2021/05/21 11:07:42;;;;;;;2.73;0.90;;;;;;;20.26;43.15;98627.44;262755;1099;114339;-66
2021/05/21 11:12:54;;;;;;;1.10;1.00;;;;;;;20.43;42.88;98612.92;263095;1104;117120;-66
2021/05/21 11:18:20;;;;;;;4.13;0.90;;;;;;;20.65;42.30;98610.58;262702;1101;116092;-65
2021/05/21 11:23:41;;;;;;;1.30;1.00;;;;;;;20.76;41.76;98610.26;263103;1104;114826;-65
2021/05/21 11:29:02;;;;;;;1.63;1.13;;;;;;;20.92;41.62;98596.72;262874;1100;115281;-65
2021/05/21 11:34:09;;;;;;;3.30;1.00;;;;;;;21.11;41.13;98575.69;263017;1104;115197;-66
2021/05/21 11:39:13;;;;;;;1.90;0.97;;;;;;;21.34;41.02;98573.95;262393;1101;115255;-68
2021/05/21 11:44:18;;;;;;;3.60;0.90;;;;;;;21.45;40.48;98568.14;262956;1104;115370;-67
2021/05/21 11:49:23;;;;;;;0.60;0.60;;;;;;;21.52;39.91;98570.99;263041;1100;115405;-67
2021/05/21 11:54:28;;;;;;;6.40;1.10;;;;;;;21.54;39.71;98552.72;262557;1104;114928;-67
2021/05/21 11:59:32;;;;;;;7.03;0.90;;;;;;;21.61;40.04;98545.56;262778;1100;115014;-67
2021/05/21 12:04:38;;;;;;;2.20;1.25;;;;;;;21.71;39.54;98550.77;262742;1104;115462;-67
2021/05/21 12:09:54;;;;;;;3.77;1.20;;;;;;;21.82;39.18;98539.51;262828;1099;115013;-67
2021/05/21 12:15:14;;;;;;;1.70;1.10;;;;;;;21.95;39.00;98545.18;262995;1104;115305;-67
2021/05/21 12:20:21;;;;;;;3.07;1.00;;;;;;;22.04;38.67;98537.82;262736;1100;115773;-67
2021/05/21 12:25:29;;;;;;;2.30;0.77;;;;;;;22.09;38.10;98537.30;262931;1104;115884;-66
2021/05/21 12:30:33;;;;;;;1.90;0.80;;;;;;;22.18;37.36;98530.80;262829;1099;115635;-67
2021/05/21 12:35:41;;;;;;;2.23;1.00;;;;;;;22.15;36.98;98529.32;263133;1099;114666;-67
2021/05/21 12:40:56;;;;;;;2.00;0.80;;;;;;;22.15;36.69;98523.06;262835;1100;115091;-66
2021/05/21 12:46:06;;;;;;;2.95;0.68;;;;;;;22.24;36.87;98521.11;262881;1104;115429;-66
2021/05/21 12:51:20;;;;;;;2.80;0.77;;;;;;;22.34;36.39;98514.40;263020;1099;115015;-66
2021/05/21 12:56:29;;;;;;;1.30;0.70;;;;;;;22.34;36.26;98506.27;262969;1104;116605;-66
2021/05/21 13:01:33;;;;;;;3.70;1.20;;;;;;;22.34;35.70;98494.59;262997;1098;114889;-66
2021/05/21 13:06:37;;;;;;;0.75;0.60;;;;;;;22.36;35.45;98496.09;263131;1104;115213;-67
2021/05/21 13:11:58;;;;;;;1.20;0.80;;;;;;;22.37;35.38;98488.80;262783;1100;115043;-66
2021/05/21 13:17:09;;;;;;;2.70;1.03;;;;;;;22.28;35.50;98482.63;262898;1103;115575;-67
2021/05/21 13:22:16;;;;;;;3.43;1.00;;;;;;;22.28;35.53;98477.20;263063;1099;115034;-66
2021/05/21 13:27:26;;;;;;;2.23;0.87;;;;;;;22.35;35.84;98453.75;262794;1100;115309;-66
2021/05/21 13:32:30;;;;;;;3.90;1.10;;;;;;;22.49;35.73;98470.23;262879;1104;114594;-67
2021/05/21 13:37:33;;;;;;;3.08;0.75;;;;;;;22.57;35.61;98470.13;263172;1102;115219;-67
2021/05/21 13:42:37;;;;;;;2.25;1.00;;;;;;;22.61;35.53;98464.13;262631;1100;114700;-67
2021/05/21 13:47:41;;;;;;;1.38;0.70;;;;;;;22.59;35.02;98460.78;262890;1104;115806;-69
2021/05/21 13:52:47;;;;;;;2.30;0.90;;;;;;;22.42;34.86;98448.43;262696;1100;114638;-67
2021/05/21 13:57:50;;;;;;;1.90;1.10;;;;;;;22.29;34.79;98454.48;263092;1104;115395;-67
2021/05/21 14:02:54;;;;;;;6.43;0.88;;;;;;;22.07;34.58;98453.45;263059;1099;114838;-66
2021/05/21 14:07:58;;;;;;;1.83;0.80;;;;;;;21.93;34.77;98449.67;263057;1104;114590;-68
2021/05/21 14:13:01;;;;;;;2.53;1.00;;;;;;;21.83;34.61;98459.08;262868;1100;115238;-67
2021/05/21 14:18:05;;;;;;;0.98;0.70;;;;;;;21.69;34.57;98449.88;263132;1104;115289;-67
2021/05/21 14:23:10;;;;;;;5.23;0.80;;;;;;;21.57;34.45;98454.01;263140;1100;115462;-66
2021/05/21 14:28:14;;;;;;;1.37;0.60;;;;;;;21.43;34.37;98452.91;262913;1104;115813;-66
2021/05/21 14:33:19;;;;;;;1.30;0.70;;;;;;;21.25;33.97;98456.70;262564;1100;114821;-67
2021/05/21 14:38:23;;;;;;;4.20;0.70;;;;;;;21.13;34.44;98435.66;262894;1104;114691;-67
2021/05/21 14:43:27;;;;;;;2.67;0.70;;;;;;;21.00;33.93;98438.92;262914;1099;114382;-67
2021/05/21 14:48:31;;;;;;;5.73;0.75;;;;;;;20.90;34.79;98436.43;262854;1104;114849;-67
2021/05/21 14:53:37;;;;;;;2.77;0.90;;;;;;;20.84;35.31;98439.83;263097;1099;114746;-67
2021/05/21 14:58:41;;;;;;;1.43;0.80;;;;;;;20.78;34.78;98438.66;262721;1104;115160;-68
2021/05/21 15:03:45;;;;;;;2.45;0.90;;;;;;;20.70;35.14;98436.00;262504;1100;115137;-68
2021/05/21 15:08:50;;;;;;;2.18;0.80;;;;;;;20.67;35.09;98427.39;262888;1104;115032;-67
2021/05/21 15:13:55;;;;;;;1.03;0.73;;;;;;;20.60;35.02;98419.13;262712;1100;114829;-66
2021/05/21 15:24:28;;;;;;;3.33;0.80;;;;;;;20.49;34.96;98409.51;262991;1099;114981;-67
2021/05/21 15:29:31;;;;;;;;;;;;;;;20.43;34.84;98412.06;262899;1104;114983;-66
2021/05/21 15:34:37;;;;;;;3.10;0.80;;;;;;;20.37;34.73;98416.28;262811;1100;101884;-67
2021/05/21 15:39:42;;;;;;;0.70;0.50;;;;;;;20.32;34.53;98416.81;262234;1105;115392;-67
2021/05/21 15:50:23;;;;;;;2.57;0.80;;;;;;;20.26;33.96;98400.45;262988;1104;115206;-67
2021/05/21 16:00:30;;;;;;;2.13;0.67;;;;;;;20.18;34.36;98392.38;262948;1102;114424;-66
2021/05/21 16:05:34;;;;;;;3.05;0.85;;;;;;;20.13;34.23;98392.03;262957;1100;114590;-66
2021/05/21 16:10:39;;;;;;;3.08;1.00;;;;;;;20.09;34.20;98388.83;263040;1103;115012;-67
2021/05/21 16:15:43;;;;;;;5.07;0.90;;;;;;;20.11;34.40;98381.41;262910;1099;115218;-67
2021/05/21 16:20:47;;;;;;;3.63;0.90;;;;;;;20.11;34.75;98380.54;263090;1104;115253;-67
2021/05/21 16:25:51;;;;;;;;;;;;;;;20.04;34.74;98377.68;262702;1100;115298;-67
2021/05/21 16:30:54;;;;;;;3.70;0.90;;;;;;;19.96;35.37;98391.21;262701;1104;101356;-68
2021/05/21 16:35:59;;;;;;;1.90;1.00;;;;;;;19.91;34.92;98383.63;262819;1100;115208;-68
2021/05/21 16:41:06;;;;;;;1.00;0.58;;;;;;;19.87;35.00;98386.82;263072;1102;114780;-67
2021/05/21 16:46:11;;;;;;;2.17;0.77;;;;;;;19.82;35.56;98374.68;263003;1098;114948;-67
2021/05/21 16:51:15;;;;;;;6.90;1.00;;;;;;;19.77;34.95;98390.56;262985;1104;115101;-67
2021/05/21 16:56:19;;;;;;;3.23;0.90;;;;;;;19.69;35.33;98382.45;262835;1099;115391;-67
2021/05/21 17:01:23;;;;;;;4.93;0.98;;;;;;;19.65;35.04;98380.27;263105;1101;115069;-67
2021/05/21 17:06:27;;;;;;;3.03;0.75;;;;;;;19.59;35.56;98379.88;263024;1100;115239;-67
2021/05/21 17:11:31;;;;;;;4.48;1.15;;;;;;;19.53;35.59;98375.19;263042;1104;115249;-67
2021/05/21 17:48:28;;;;;;;1.83;1.27;;;;;;;19.15;36.26;98387.43;262840;1104;114698;-67
2021/05/21 17:59:37;;;;;;;3.97;1.40;;;;;;;18.98;36.27;98391.94;263071;1104;115084;-67
2021/05/21 19:02:37;;;;;;;4.87;2.20;;;;;;;18.26;37.54;98394.14;262826;1104;115412;-67
2021/05/21 19:18:14;;;;;;;5.90;1.90;;;;;;;18.21;37.96;98401.88;262939;1097;115250;-67
2021/05/21 19:23:20;;;;;;;6.30;1.78;;;;;;;18.20;38.41;98398.30;262713;1104;115560;-66
2021/05/21 19:28:30;;;;;;;9.70;2.50;;;;;;;18.18;38.74;98408.41;262961;1099;115452;-66
2021/05/21 20:15:59;;;;;;;5.98;2.10;;;;;;;17.74;41.73;98439.86;262963;1104;115423;-67
2021/05/21 20:21:04;;;;;;;2.37;1.43;;;;;;;17.63;42.64;98446.33;261580;1100;114936;-67
2021/05/21 20:26:18;;;;;;;2.87;1.43;;;;;;;17.53;43.46;98440.19;262417;1104;114836;-67
2021/05/21 20:32:26;;;;;;;3.70;1.60;;;;;;;17.40;43.95;98440.56;262326;1099;116233;-66
2021/05/21 21:03:47;;;;;;;2.57;1.70;;;;;;;16.71;47.62;98433.02;262561;1104;115741;-65
2021/05/21 21:09:00;;;;;;;2.80;1.75;;;;;;;16.58;47.94;98432.54;262078;1100;114673;-65
2021/05/21 21:25:55;;;;;;;3.30;1.50;;;;;;;16.25;49.64;98416.81;262278;1099;115324;-66
2021/05/21 21:30:30;;;;;;;5.83;2.60;;;;;;;16.14;49.51;98403.58;262945;1100;115552;-65
2021/05/21 21:36:02;;;;;;;2.75;1.90;;;;;;;16.07;50.57;98397.10;262226;1104;114665;-66
2021/05/21 21:51:47;;;;;;;5.20;1.83;;;;;;;15.92;52.27;98372.55;262383;1099;115740;-67
2021/05/21 22:13:36;;;;;;;3.27;2.10;;;;;;;15.71;53.22;98364.69;263109;1100;114553;-66
2021/05/21 22:18:27;;;;;;;3.33;2.20;;;;;;;15.67;53.72;98347.19;262178;1104;114921;-66
2021/05/21 22:28:39;;;;;;;5.55;2.33;;;;;;;15.68;54.21;98327.42;262787;1104;116236;-68
2021/05/21 22:33:43;;;;;;;;;;;;;;;15.69;54.09;98306.80;262952;1100;114668;-67
2021/05/21 22:38:54;;;;;;;4.33;1.93;;;;;;;15.61;54.23;98308.34;262729;1104;103009;-68
2021/05/21 22:43:58;;;;;;;5.60;2.30;;;;;;;15.55;54.61;98316.96;262725;1100;114864;-67
2021/05/21 22:49:03;;;;;;;3.50;2.08;;;;;;;15.48;54.66;98323.05;262189;1104;114615;-67
2021/05/21 22:54:08;;;;;;;2.97;1.97;;;;;;;15.49;55.11;98338.14;262381;1100;115766;-67
2021/05/21 22:59:12;;;;;;;6.23;2.38;;;;;;;15.54;55.61;98354.66;262348;1104;115060;-66
2021/05/21 23:04:16;;;;;;;4.75;2.28;;;;;;;15.59;55.61;98352.38;264531;1085;114963;-64
2021/05/21 23:09:20;;;;;;;4.30;2.30;;;;;;;15.63;55.94;98351.13;263165;1104;114829;-64
2021/05/21 23:14:24;;;;;;;4.53;2.53;;;;;;;15.64;56.15;98363.54;263086;1099;114887;-65
2021/05/21 23:19:27;;;;;;;4.68;2.58;;;;;;;15.63;56.06;98367.22;263096;1104;114994;-65
2021/05/21 23:24:31;;;;;;;3.70;2.33;;;;;;;15.64;56.59;98368.06;263039;1100;114284;-66
2021/05/21 23:29:35;;;;;;;4.40;2.60;;;;;;;15.60;56.43;98365.66;263173;1102;115161;-65
2021/05/21 23:34:39;;;;;;;5.10;2.63;;;;;;;15.57;56.19;98367.79;263103;1100;114722;-68
2021/05/21 23:39:42;;;;;;;4.07;2.27;;;;;;;15.51;56.63;98368.36;263068;1104;115359;-66
2021/05/21 23:44:46;;;;;;;4.60;2.90;;;;;;;15.41;56.48;98362.16;263049;1099;114454;-67
2021/05/21 23:49:49;;;;;;;3.27;2.57;;;;;;;15.28;56.44;98354.39;263150;1104;114668;-67
2021/05/21 23:54:53;;;;;;;4.13;2.03;;;;;;;15.18;56.72;98349.03;263136;1098;114862;-67
